Time;durP1;ratioP1;P1;durP2;ratioP2;P2;SDS_P1;SDS_P2;PMS_P1;PMS_P2;Temp;Humidity;BMP_temperature;BMP_pressure;BME280_temperature;BME280_humidity;BME280_pressure;Samples;Min_cycle;Max_cycle;Signal;HPM_P1;HPM_P2
2023/03/22 00:00:34;;;;;;;8.33;4.53;;;11.80;99.90;;;;;;5011341;28;20037;-72
2023/03/22 00:03:00;;;;;;;10.00;4.85;;;11.80;99.90;;;;;;5011660;28;20026;-73
2023/03/22 00:05:25;;;;;;;8.50;4.65;;;11.80;99.90;;;;;;5011209;28;20127;-73
2023/03/22 00:07:53;;;;;;;6.70;4.50;;;11.70;99.90;;;;;;5011144;28;20034;-71
2023/03/22 00:10:19;;;;;;;8.93;4.82;;;11.80;99.90;;;;;;5010175;28;20030;-72
2023/03/22 00:12:45;;;;;;;11.15;5.22;;;11.70;99.90;;;;;;5011115;28;20456;-73
2023/03/22 00:15:11;;;;;;;9.52;4.80;;;11.70;99.90;;;;;;5011689;28;20407;-73
2023/03/22 00:17:37;;;;;;;10.50;5.28;;;11.70;99.90;;;;;;5011060;28;20042;-72
2023/03/22 00:20:05;;;;;;;8.38;4.93;;;11.60;99.90;;;;;;5010836;28;20084;-73
2023/03/22 00:22:31;;;;;;;;;;;11.60;99.90;;;;;;5011321;28;20117;-73
2023/03/22 00:24:57;;;;;;;11.90;5.90;;;11.60;99.90;;;;;;5009960;28;20308;-71
2023/03/22 00:27:22;;;;;;;11.32;5.57;;;11.60;99.90;;;;;;5010982;28;20073;-72
2023/03/22 00:29:51;;;;;;;10.50;5.22;;;11.70;99.90;;;;;;5011532;28;20022;-72
2023/03/22 00:32:16;;;;;;;11.07;5.10;;;11.70;99.90;;;;;;5009795;28;20054;-71
2023/03/22 00:34:42;;;;;;;11.15;5.65;;;11.60;99.90;;;;;;5010780;28;20444;-73
2023/03/22 00:37:08;;;;;;;10.65;5.63;;;11.60;99.90;;;;;;5009722;28;20030;-73
2023/03/22 00:39:33;;;;;;;11.40;5.65;;;11.50;99.90;;;;;;5010991;28;20041;-72
2023/03/22 00:42:00;;;;;;;12.20;5.65;;;11.50;99.90;;;;;;5011590;28;20022;-73
2023/03/22 00:44:25;;;;;;;11.38;5.70;;;11.60;99.90;;;;;;5011040;28;20030;-72
2023/03/22 00:46:51;;;;;;;10.23;5.57;;;11.50;99.90;;;;;;5010751;28;20044;-72
2023/03/22 00:49:17;;;;;;;10.70;5.63;;;11.50;99.90;;;;;;5009709;28;20088;-73
2023/03/22 00:51:43;;;;;;;10.60;5.70;;;11.50;99.90;;;;;;5010676;28;20037;-73
2023/03/22 00:54:09;;;;;;;16.23;5.50;;;11.40;99.90;;;;;;5011056;28;20030;-71
2023/03/22 00:56:36;;;;;;;14.63;5.97;;;11.50;99.90;;;;;;5010758;28;20034;-73
2023/03/22 00:59:03;;;;;;;11.57;5.88;;;11.40;99.90;;;;;;5010880;28;20119;-73
2023/03/22 01:01:29;;;;;;;10.65;6.10;;;11.40;99.90;;;;;;5010783;28;20180;-73
2023/03/22 01:03:55;;;;;;;14.82;6.10;;;11.40;99.90;;;;;;5010695;28;20030;-72
2023/03/22 01:06:20;;;;;;;8.43;5.45;;;11.40;99.90;;;;;;5009362;28;20044;-72
2023/03/22 01:08:49;;;;;;;15.23;6.57;;;11.40;99.90;;;;;;5010053;28;20026;-72
2023/03/22 01:11:15;;;;;;;10.98;5.90;;;11.30;99.90;;;;;;5010479;28;20152;-72
2023/03/22 01:13:41;;;;;;;11.68;6.80;;;11.30;99.90;;;;;;5009523;28;20116;-73
2023/03/22 01:16:08;;;;;;;9.98;6.22;;;11.30;99.90;;;;;;5010827;28;20054;-72
2023/03/22 01:18:34;;;;;;;12.75;6.32;;;11.30;99.90;;;;;;5009408;28;20121;-72
2023/03/22 01:21:00;;;;;;;12.80;6.63;;;11.30;99.90;;;;;;5010864;28;20053;-72
2023/03/22 01:23:27;;;;;;;13.45;6.93;;;11.30;99.90;;;;;;5010505;28;20077;-72
2023/03/22 01:25:52;;;;;;;12.40;7.25;;;11.30;99.90;;;;;;5010561;28;20133;-71
2023/03/22 01:28:18;;;;;;;16.27;6.75;;;11.20;99.90;;;;;;5009465;28;20037;-72
2023/03/22 01:30:43;;;;;;;11.68;6.35;;;11.20;99.90;;;;;;5010961;28;20380;-72
2023/03/22 01:33:09;;;;;;;14.30;6.72;;;11.20;99.90;;;;;;5014419;28;20021;-72
2023/03/22 01:35:36;;;;;;;12.38;7.15;;;11.30;99.90;;;;;;5012944;28;20373;-72
2023/03/22 01:38:02;;;;;;;15.13;7.40;;;11.30;99.90;;;;;;5013908;28;20030;-71
2023/03/22 01:40:28;;;;;;;18.38;8.15;;;11.30;99.90;;;;;;5012717;28;20112;-72
2023/03/22 01:42:55;;;;;;;18.60;7.47;;;11.20;99.90;;;;;;5013820;28;20130;-73
2023/03/22 01:45:33;;;;;;;12.27;6.22;;;11.30;99.90;;;;;;5013791;28;20022;-72
2023/03/22 01:48:07;;;;;;;13.52;7.32;;;11.30;99.90;;;;;;5014258;28;20018;-72
2023/03/22 01:50:32;;;;;;;13.88;7.70;;;11.30;99.90;;;;;;5013793;28;20121;-72
2023/03/22 01:53:03;;;;;;;12.63;7.90;;;11.30;99.90;;;;;;5013711;28;20524;-72
2023/03/22 01:55:32;;;;;;;12.57;7.63;;;11.30;99.90;;;;;;5012231;28;20119;-72
2023/03/22 01:57:59;;;;;;;13.18;7.68;;;11.30;99.90;;;;;;5012542;28;20030;-72
2023/03/22 02:00:25;;;;;;;15.15;8.20;;;11.30;99.90;;;;;;5013442;28;20456;-72
2023/03/22 02:02:52;;;;;;;13.57;7.38;;;11.40;99.90;;;;;;5013913;28;20037;-73
2023/03/22 02:05:21;;;;;;;17.15;8.52;;;11.40;99.90;;;;;;5012513;28;20464;-71
2023/03/22 02:07:48;;;;;;;15.43;8.00;;;11.30;99.90;;;;;;5012518;28;20041;-72
2023/03/22 02:10:17;;;;;;;16.00;8.10;;;11.40;99.90;;;;;;5013258;28;20037;-71
2023/03/22 02:13:13;;;;;;;12.93;7.35;;;11.40;99.90;;;;;;5013127;28;20053;-72
2023/03/22 02:15:54;;;;;;;15.88;7.90;;;11.40;99.90;;;;;;5013225;28;20030;-72
2023/03/22 02:19:04;;;;;;;16.77;7.93;;;11.40;99.90;;;;;;5013154;28;20053;-72
2023/03/22 02:21:54;;;;;;;15.38;7.55;;;11.40;99.90;;;;;;5012082;28;20113;-72
2023/03/22 02:24:29;;;;;;;13.32;7.75;;;11.40;99.90;;;;;;5013041;28;20226;-73
2023/03/22 02:27:39;;;;;;;16.10;8.43;;;11.40;99.90;;;;;;5013288;28;20080;-72
2023/03/22 02:30:43;;;;;;;16.17;7.45;;;11.30;99.90;;;;;;5012650;28;20030;-71
2023/03/22 02:33:29;;;;;;;17.02;8.57;;;11.40;99.90;;;;;;5010471;28;20460;-72
2023/03/22 02:36:02;;;;;;;15.60;7.90;;;11.30;99.90;;;;;;5019483;28;20116;-72
2023/03/22 02:38:51;;;;;;;16.85;9.07;;;11.30;99.90;;;;;;5019015;28;20296;-72
2023/03/22 02:41:26;;;;;;;19.20;8.77;;;11.40;99.90;;;;;;5012788;28;20433;-73
2023/03/22 02:44:04;;;;;;;16.02;8.95;;;11.30;99.90;;;;;;5012794;28;20338;-73
2023/03/22 02:46:54;;;;;;;14.63;8.27;;;11.40;99.90;;;;;;5012594;28;20037;-70
2023/03/22 02:49:52;;;;;;;20.33;8.52;;;11.30;99.90;;;;;;5012571;28;20038;-70
2023/03/22 02:52:59;;;;;;;19.48;9.93;;;11.40;99.90;;;;;;5027472;28;20037;-71
2023/03/22 02:55:43;;;;;;;17.25;9.30;;;11.40;99.90;;;;;;4990457;28;20496;-72
2023/03/22 02:58:23;;;;;;;15.13;8.45;;;11.40;99.90;;;;;;5010619;28;20065;-72
2023/03/22 03:00:52;;;;;;;14.15;8.50;;;11.40;99.90;;;;;;5011598;28;20369;-72
2023/03/22 03:03:19;;;;;;;21.80;10.15;;;11.40;99.90;;;;;;5011168;28;20018;-72
2023/03/22 03:05:54;;;;;;;16.35;9.35;;;11.40;99.90;;;;;;5012681;28;20053;-73
2023/03/22 03:08:22;;;;;;;21.95;9.77;;;11.40;99.90;;;;;;5012514;28;20409;-73
2023/03/22 03:10:48;;;;;;;17.85;9.75;;;11.40;99.90;;;;;;5012672;28;20030;-73
2023/03/22 03:13:16;;;;;;;16.63;10.20;;;11.50;99.90;;;;;;5012362;28;20463;-73
2023/03/22 03:15:45;;;;;;;16.77;9.73;;;11.50;99.90;;;;;;5012201;28;20033;-71
2023/03/22 03:18:43;;;;;;;20.77;9.85;;;11.40;99.90;;;;;;5012645;28;20079;-73
2023/03/22 03:21:36;;;;;;;17.65;9.05;;;11.40;99.90;;;;;;5012154;28;20451;-71
2023/03/22 03:24:24;;;;;;;16.98;10.23;;;11.40;99.90;;;;;;5012437;28;20594;-71
2023/03/22 03:27:16;;;;;;;20.88;11.10;;;11.50;99.90;;;;;;5012123;28;20037;-73
2023/03/22 03:29:53;;;;;;;18.63;9.27;;;11.50;99.90;;;;;;5012171;28;20041;-73
2023/03/22 03:32:26;;;;;;;15.63;9.73;;;11.50;99.90;;;;;;5011829;28;20049;-72
2023/03/22 03:35:21;;;;;;;18.80;9.50;;;11.40;99.90;;;;;;5011922;28;20034;-73
2023/03/22 03:38:01;;;;;;;14.85;9.00;;;11.50;99.90;;;;;;4990435;28;20045;-71
2023/03/22 03:40:33;;;;;;;20.00;10.50;;;11.50;99.90;;;;;;5001200;28;20065;-71
2023/03/22 03:43:02;;;;;;;21.38;9.95;;;11.60;99.90;;;;;;5010727;28;20444;-73
2023/03/22 03:45:29;;;;;;;17.70;9.73;;;11.50;99.90;;;;;;5010625;28;20092;-73
2023/03/22 03:47:59;;;;;;;17.58;10.05;;;11.50;99.90;;;;;;5011151;28;20017;-74
2023/03/22 03:50:25;;;;;;;21.02;9.93;;;11.60;99.90;;;;;;5010646;28;20037;-73
2023/03/22 03:52:53;;;;;;;19.60;10.55;;;11.50;99.90;;;;;;5011631;28;20032;-73
2023/03/22 03:55:20;;;;;;;17.17;9.98;;;11.50;99.90;;;;;;5011195;28;20111;-74
2023/03/22 03:57:46;;;;;;;17.55;10.15;;;11.50;99.90;;;;;;5011407;28;20056;-74
2023/03/22 04:00:15;;;;;;;22.92;10.77;;;11.60;99.90;;;;;;5011976;28;20468;-73
2023/03/22 04:02:41;;;;;;;18.48;10.45;;;11.50;99.90;;;;;;5027141;28;20041;-73
2023/03/22 04:05:08;;;;;;;19.42;10.90;;;11.60;99.90;;;;;;5011504;28;20069;-73
2023/03/22 04:07:34;;;;;;;17.80;10.05;;;11.50;99.90;;;;;;5011403;28;20388;-73
2023/03/22 04:10:00;;;;;;;19.25;10.20;;;11.50;99.90;;;;;;5010073;28;20382;-73
2023/03/22 04:12:25;;;;;;;18.40;9.85;;;11.50;99.90;;;;;;5011233;28;20018;-72
2023/03/22 04:14:51;;;;;;;15.20;8.95;;;11.70;99.90;;;;;;5010738;28;20018;-73
2023/03/22 04:17:17;;;;;;;21.05;10.63;;;11.70;99.90;;;;;;5011364;28;20049;-71
2023/03/22 04:19:44;;;;;;;18.38;9.50;;;11.70;99.90;;;;;;5011514;28;20468;-73
2023/03/22 04:22:13;;;;;;;19.38;9.93;;;11.60;99.90;;;;;;5011158;28;20518;-72
2023/03/22 04:24:40;;;;;;;21.35;11.10;;;11.70;99.90;;;;;;5011101;28;20034;-73
2023/03/22 04:27:08;;;;;;;17.50;9.77;;;11.60;99.90;;;;;;5010775;28;20113;-73
2023/03/22 04:29:35;;;;;;;;;;;11.60;99.90;;;;;;5026892;28;20668;-72
2023/03/22 04:32:01;;;;;;;16.13;9.45;;;11.60;99.90;;;;;;5011051;28;19984;-73
2023/03/22 04:34:28;;;;;;;15.75;10.05;;;11.60;99.90;;;;;;5011226;28;20065;-72
2023/03/22 04:36:53;;;;;;;19.50;9.90;;;11.60;99.90;;;;;;5010965;28;20057;-73
2023/03/22 04:39:20;;;;;;;18.33;10.20;;;11.60;99.90;;;;;;5011185;28;20062;-73
2023/03/22 04:41:45;;;;;;;17.25;9.82;;;11.60;99.90;;;;;;5011301;28;20018;-72
2023/03/22 04:44:11;;;;;;;19.42;10.30;;;11.60;99.90;;;;;;5011370;28;20033;-72
2023/03/22 04:46:37;;;;;;;15.85;9.52;;;11.70;99.90;;;;;;5011217;28;20472;-71
2023/03/22 04:49:04;;;;;;;20.90;10.52;;;11.70;99.90;;;;;;5010884;28;20030;-72
2023/03/22 04:51:30;;;;;;;19.60;10.35;;;11.60;99.90;;;;;;5010917;28;20395;-72
2023/03/22 04:53:57;;;;;;;16.30;9.73;;;11.70;99.90;;;;;;5011500;28;20096;-72
2023/03/22 04:56:23;;;;;;;17.08;9.90;;;11.70;99.90;;;;;;5010707;28;20029;-73
2023/03/22 04:58:49;;;;;;;22.45;10.48;;;11.70;99.90;;;;;;5010782;28;20033;-72
2023/03/22 05:01:16;;;;;;;19.20;10.15;;;11.70;99.90;;;;;;5010659;28;20092;-72
2023/03/22 05:03:44;;;;;;;26.27;10.33;;;11.60;99.90;;;;;;5010999;28;20030;-73
2023/03/22 05:06:10;;;;;;;19.02;10.35;;;11.70;99.90;;;;;;5012356;28;20279;-73
2023/03/22 05:08:36;;;;;;;19.67;10.93;;;11.70;99.90;;;;;;5014978;28;20112;-72
2023/03/22 05:11:13;;;;;;;21.15;11.45;;;11.60;99.90;;;;;;5013640;28;20121;-73
2023/03/22 05:13:39;;;;;;;18.83;11.15;;;11.60;99.90;;;;;;5013547;28;20343;-73
2023/03/22 05:16:06;;;;;;;19.67;10.23;;;11.60;99.90;;;;;;5014367;28;20030;-73
2023/03/22 05:18:32;;;;;;;21.73;11.25;;;11.60;99.90;;;;;;5014437;28;20038;-73
2023/03/22 05:20:59;;;;;;;22.40;11.18;;;11.50;99.90;;;;;;5014711;28;20022;-73
2023/03/22 05:23:26;;;;;;;18.48;10.90;;;11.50;99.90;;;;;;5014226;28;20080;-72
2023/03/22 05:25:53;;;;;;;20.90;11.45;;;11.50;99.90;;;;;;5014165;28;20080;-72
2023/03/22 05:28:20;;;;;;;27.48;12.23;;;11.50;99.90;;;;;;5014098;28;20041;-72
2023/03/22 05:30:46;;;;;;;24.23;11.67;;;11.50;99.90;;;;;;5013994;28;20061;-72
2023/03/22 05:33:13;;;;;;;26.83;11.52;;;11.50;99.90;;;;;;5013988;28;20033;-75
2023/03/22 05:35:40;;;;;;;21.42;11.45;;;11.50;99.90;;;;;;5014862;28;20048;-73
2023/03/22 05:38:07;;;;;;;22.85;11.65;;;11.50;99.90;;;;;;5013781;28;20468;-72
2023/03/22 05:40:33;;;;;;;22.08;12.02;;;11.50;99.90;;;;;;5013976;28;20038;-72
2023/03/22 05:42:58;;;;;;;24.73;12.75;;;11.60;99.90;;;;;;5013958;28;20322;-72
2023/03/22 05:45:25;;;;;;;26.60;12.95;;;11.60;99.90;;;;;;5013547;28;20100;-72
2023/03/22 05:47:52;;;;;;;20.35;11.88;;;11.60;99.90;;;;;;5013159;28;20441;-73
2023/03/22 05:50:20;;;;;;;26.75;11.43;;;11.60;99.90;;;;;;5012699;28;20033;-73
2023/03/22 05:52:47;;;;;;;20.20;11.75;;;11.60;99.90;;;;;;5012577;28;20457;-71
2023/03/22 05:55:16;;;;;;;22.42;11.65;;;11.60;99.90;;;;;;5013250;28;20122;-74
2023/03/22 05:57:42;;;;;;;23.40;12.55;;;11.60;99.90;;;;;;5013707;28;20033;-73
2023/03/22 06:00:12;;;;;;;24.63;12.63;;;11.60;99.90;;;;;;5013701;28;20061;-71
2023/03/22 06:02:39;;;;;;;27.13;12.77;;;11.50;99.90;;;;;;5013534;28;20070;-71
2023/03/22 06:05:06;;;;;;;23.13;13.02;;;11.50;99.90;;;;;;5013232;28;20026;-71
2023/03/22 06:07:32;;;;;;;25.80;12.75;;;11.50;99.90;;;;;;5012158;28;20320;-71
2023/03/22 06:09:58;;;;;;;21.65;12.25;;;11.60;99.90;;;;;;5013023;28;20036;-71
2023/03/22 06:12:24;;;;;;;22.17;12.25;;;11.60;99.90;;;;;;5011969;28;20411;-73
2023/03/22 06:14:51;;;;;;;23.70;13.15;;;11.60;99.90;;;;;;5012511;28;20152;-71
2023/03/22 06:17:17;;;;;;;23.42;13.35;;;11.60;99.90;;;;;;5013046;28;20064;-73
2023/03/22 06:19:43;;;;;;;22.05;12.30;;;11.60;99.90;;;;;;5013239;28;20041;-73
2023/03/22 06:22:09;;;;;;;28.63;13.02;;;11.60;99.90;;;;;;5013108;28;20579;-72
2023/03/22 06:24:35;;;;;;;19.17;11.23;;;11.60;99.90;;;;;;5012851;28;20034;-72
2023/03/22 06:27:00;;;;;;;23.02;11.52;;;11.60;99.90;;;;;;5013180;28;20056;-72
2023/03/22 06:29:26;;;;;;;30.05;12.30;;;11.70;99.90;;;;;;5012948;28;20041;-73
2023/03/22 06:31:52;;;;;;;23.13;11.98;;;11.70;99.90;;;;;;5012761;28;20062;-74
2023/03/22 06:34:18;;;;;;;24.67;11.68;;;11.80;99.90;;;;;;5012742;28;20034;-73
2023/03/22 06:36:44;;;;;;;20.27;12.13;;;11.80;99.90;;;;;;5011504;28;20484;-73
2023/03/22 06:39:09;;;;;;;21.35;12.02;;;11.90;99.90;;;;;;5012861;28;20096;-71
2023/03/22 06:41:35;;;;;;;23.40;12.00;;;11.90;99.90;;;;;;5012383;28;20125;-72
2023/03/22 06:44:01;;;;;;;20.13;11.65;;;11.90;99.90;;;;;;5011919;28;20077;-70
2023/03/22 06:46:27;;;;;;;23.25;12.20;;;12.00;99.90;;;;;;5012422;28;20392;-70
2023/03/22 06:48:53;;;;;;;22.77;11.85;;;12.00;99.90;;;;;;5012494;28;20042;-72
2023/03/22 06:51:19;;;;;;;20.40;11.75;;;12.10;99.90;;;;;;5012309;28;20034;-70
2023/03/22 06:53:45;;;;;;;19.48;11.43;;;12.10;99.90;;;;;;5013045;28;20542;-71
2023/03/22 06:56:11;;;;;;;27.92;14.98;;;12.10;99.90;;;;;;5012573;28;20026;-70
2023/03/22 06:58:36;;;;;;;24.70;12.65;;;12.20;99.90;;;;;;5012157;28;20080;-71
2023/03/22 07:01:02;;;;;;;19.90;11.68;;;12.20;99.90;;;;;;5011977;28;20034;-71
2023/03/22 07:03:28;;;;;;;23.15;12.32;;;12.20;99.90;;;;;;5013441;28;20242;-71
2023/03/22 07:06:00;;;;;;;22.20;12.57;;;12.20;99.90;;;;;;5011386;28;20216;-71
2023/03/22 07:08:26;;;;;;;20.02;11.75;;;12.30;99.90;;;;;;5011348;28;20030;-71
2023/03/22 07:10:52;;;;;;;27.40;12.88;;;12.30;99.90;;;;;;5012438;28;20387;-71
2023/03/22 07:13:17;;;;;;;22.20;13.07;;;12.20;99.90;;;;;;5010723;28;20452;-70
2023/03/22 07:15:43;;;;;;;21.20;11.98;;;12.30;99.90;;;;;;5011806;28;20129;-71
2023/03/22 07:18:09;;;;;;;20.00;10.85;;;12.20;99.90;;;;;;5012314;28;20443;-72
2023/03/22 07:20:37;;;;;;;18.58;10.43;;;12.40;99.90;;;;;;5011652;28;20056;-69
2023/03/22 07:23:03;;;;;;;23.08;11.73;;;12.30;99.90;;;;;;5012109;28;20064;-70
2023/03/22 07:25:29;;;;;;;21.23;10.90;;;12.30;99.90;;;;;;5011725;28;20038;-70
2023/03/22 07:27:55;;;;;;;19.45;10.88;;;12.40;99.90;;;;;;5011144;28;20041;-69
2023/03/22 07:30:21;;;;;;;21.35;11.23;;;12.40;99.90;;;;;;5010812;28;20053;-70
2023/03/22 07:32:46;;;;;;;23.45;10.88;;;12.50;99.90;;;;;;5011614;28;20061;-70
2023/03/22 07:35:12;;;;;;;21.10;11.15;;;12.60;99.90;;;;;;5011382;28;20041;-70
2023/03/22 07:37:38;;;;;;;21.52;11.07;;;12.70;99.90;;;;;;5011359;28;20518;-69
2023/03/22 07:40:04;;;;;;;19.83;10.88;;;12.80;99.90;;;;;;5011488;28;20034;-71
2023/03/22 07:42:30;;;;;;;20.40;10.52;;;12.80;99.90;;;;;;5010224;28;20057;-71
2023/03/22 07:44:56;;;;;;;20.25;11.20;;;12.80;99.90;;;;;;5010766;28;20060;-71
2023/03/22 07:47:22;;;;;;;22.92;10.88;;;12.90;99.90;;;;;;5009455;28;20046;-71
2023/03/22 07:49:48;;;;;;;20.30;11.02;;;12.90;99.90;;;;;;5011286;28;20026;-70
2023/03/22 07:52:13;;;;;;;20.70;10.70;;;13.10;99.90;;;;;;5011112;28;20073;-71
2023/03/22 07:54:39;;;;;;;23.50;12.73;;;13.10;99.90;;;;;;5010122;28;20029;-70
2023/03/22 07:57:05;;;;;;;19.70;11.30;;;13.20;99.90;;;;;;5011336;28;20018;-71
2023/03/22 07:59:31;;;;;;;17.48;9.98;;;13.20;99.90;;;;;;5011122;28;20366;-70
2023/03/22 08:01:57;;;;;;;20.20;10.80;;;13.40;99.90;;;;;;5011248;28;20036;-71
2023/03/22 08:04:23;;;;;;;20.85;10.35;;;13.50;99.90;;;;;;5009954;28;20034;-70
2023/03/22 08:06:50;;;;;;;16.40;9.75;;;13.70;99.90;;;;;;5010959;28;20492;-71
2023/03/22 08:09:16;;;;;;;20.25;10.02;;;13.80;99.90;;;;;;5011036;28;20112;-71
2023/03/22 08:11:42;;;;;;;18.45;9.30;;;14.10;99.90;;;;;;5011432;28;20022;-71
2023/03/22 08:14:07;;;;;;;18.08;9.93;;;14.10;99.90;;;;;;5011738;28;20068;-70
2023/03/22 08:16:34;;;;;;;19.35;8.85;;;14.00;99.90;;;;;;5010833;28;20038;-70
2023/03/22 08:18:59;;;;;;;19.17;9.23;;;14.10;99.90;;;;;;5010825;28;20066;-70
2023/03/22 08:21:26;;;;;;;14.23;8.25;;;14.10;99.90;;;;;;5010779;28;20119;-70
2023/03/22 08:23:52;;;;;;;18.45;8.82;;;14.10;99.80;;;;;;5011151;28;20021;-69
2023/03/22 08:26:18;;;;;;;15.57;8.38;;;14.00;99.80;;;;;;5010838;28;20034;-70
2023/03/22 08:28:43;;;;;;;14.38;7.35;;;14.00;99.90;;;;;;5010840;28;20088;-70
2023/03/22 08:31:11;;;;;;;18.92;6.97;;;14.00;99.60;;;;;;5010569;28;20077;-70
2023/03/22 08:33:37;;;;;;;16.15;6.88;;;14.00;99.30;;;;;;5010609;28;20492;-69
2023/03/22 08:36:09;;;;;;;20.42;6.65;;;14.00;99.30;;;;;;5011111;28;20053;-70
2023/03/22 08:38:34;;;;;;;13.95;7.00;;;14.00;99.00;;;;;;5009429;28;20034;-70
2023/03/22 08:41:00;;;;;;;13.48;6.65;;;14.00;98.90;;;;;;5013642;28;20435;-71
2023/03/22 08:43:26;;;;;;;9.70;5.88;;;14.00;99.00;;;;;;5014700;28;20041;-71
2023/03/22 08:45:51;;;;;;;10.00;5.40;;;14.00;98.80;;;;;;5014869;28;20438;-70
2023/03/22 08:48:17;;;;;;;10.25;5.75;;;14.00;98.70;;;;;;5014761;28;20026;-70
2023/03/22 08:50:43;;;;;;;13.95;5.80;;;14.10;98.60;;;;;;5015318;28;20397;-71
2023/03/22 08:53:09;;;;;;;15.18;8.40;;;14.10;98.70;;;;;;5014783;28;20103;-72
2023/03/22 08:55:36;;;;;;;12.55;5.40;;;14.10;98.60;;;;;;5014571;28;20045;-70
2023/03/22 08:58:02;;;;;;;11.30;4.57;;;14.20;98.50;;;;;;5014675;28;20026;-71
2023/03/22 09:00:29;;;;;;;11.23;4.85;;;14.20;98.40;;;;;;5014543;28;20083;-70
2023/03/22 09:02:55;;;;;;;12.07;5.85;;;14.20;98.30;;;;;;5013928;28;20030;-70
2023/03/22 09:05:20;;;;;;;12.60;5.95;;;14.20;98.50;;;;;;5014424;28;20537;-71
2023/03/22 09:07:50;;;;;;;12.73;5.72;;;14.40;98.60;;;;;;5014263;28;20114;-71
2023/03/22 09:10:16;;;;;;;10.88;5.60;;;14.50;98.00;;;;;;5014088;28;20034;-70
2023/03/22 09:12:42;;;;;;;11.52;6.10;;;14.70;98.10;;;;;;5014349;28;20376;-70
2023/03/22 09:15:08;;;;;;;9.43;6.07;;;14.80;98.10;;;;;;5015173;28;20471;-70
2023/03/22 09:17:34;;;;;;;13.70;6.20;;;15.00;97.40;;;;;;5013542;28;20038;-71
2023/03/22 09:19:59;;;;;;;17.92;6.13;;;15.30;97.40;;;;;;5014420;28;20042;-71
2023/03/22 09:22:25;;;;;;;12.82;6.65;;;15.50;97.00;;;;;;5014073;28;20033;-70
2023/03/22 09:24:51;;;;;;;12.98;5.93;;;15.50;96.70;;;;;;5014809;28;20042;-70
2023/03/22 09:27:31;;;;;;;12.85;6.50;;;15.80;96.50;;;;;;5005477;28;20052;-70
2023/03/22 09:29:59;;;;;;;15.15;6.07;;;16.10;96.30;;;;;;5029570;28;20034;-70
2023/03/22 09:32:25;;;;;;;11.07;5.93;;;16.30;96.00;;;;;;5014437;28;20061;-70
2023/03/22 09:34:51;;;;;;;12.15;5.50;;;16.30;95.60;;;;;;5014064;28;20026;-70
2023/03/22 09:37:18;;;;;;;10.18;5.32;;;16.50;95.50;;;;;;5014057;28;20033;-71
2023/03/22 09:39:44;;;;;;;10.70;5.15;;;17.20;95.60;;;;;;5013658;28;20038;-70
2023/03/22 09:42:33;;;;;;;12.35;5.60;;;17.30;94.50;;;;;;5014136;28;20022;-70
2023/03/22 09:45:01;;;;;;;10.02;5.03;;;17.40;94.60;;;;;;5012587;28;20177;-70
2023/03/22 09:47:32;;;;;;;;;;;17.30;94.20;;;;;;5013388;28;20049;-70
2023/03/22 09:50:14;;;;;;;13.63;5.75;;;17.30;93.60;;;;;;5013009;28;19924;-70
2023/03/22 09:52:42;;;;;;;13.18;4.60;;;17.10;93.60;;;;;;5013072;28;20445;-69
2023/03/22 09:55:16;;;;;;;;;;;17.30;93.90;;;;;;5013119;28;20045;-70
2023/03/22 09:57:43;;;;;;;10.82;4.10;;;17.60;93.50;;;;;;5013824;28;19909;-70
2023/03/22 10:00:13;;;;;;;9.90;4.20;;;17.70;93.50;;;;;;5013919;28;20017;-70
2023/03/22 10:02:45;;;;;;;11.00;3.67;;;17.70;92.90;;;;;;5016082;28;20121;-70
2023/03/22 10:05:20;;;;;;;9.48;3.75;;;17.80;93.20;;;;;;5013889;28;20030;-71
2023/03/22 10:08:10;;;;;;;10.55;4.03;;;17.80;92.50;;;;;;5011995;28;20022;-70
2023/03/22 10:10:40;;;;;;;8.48;3.50;;;18.20;92.50;;;;;;5013194;28;20037;-70
2023/03/22 10:13:06;;;;;;;8.95;3.28;;;18.20;91.70;;;;;;5012240;28;20492;-71
2023/03/22 10:15:42;;;;;;;8.70;3.58;;;18.40;91.20;;;;;;5013176;28;20775;-71
2023/03/22 10:18:15;;;;;;;7.93;2.83;;;18.10;91.20;;;;;;5013487;28;20037;-69
2023/03/22 10:21:00;;;;;;;6.97;3.63;;;18.50;91.50;;;;;;5012063;28;20542;-72
2023/03/22 10:23:41;;;;;;;5.85;3.35;;;19.20;90.60;;;;;;5011812;28;20364;-71
2023/03/22 10:26:08;;;;;;;7.13;3.28;;;19.80;90.50;;;;;;5012803;28;20038;-71
2023/03/22 10:28:37;;;;;;;8.15;2.78;;;20.10;89.30;;;;;;5011720;28;20037;-70
2023/03/22 10:31:03;;;;;;;6.07;2.95;;;19.90;89.00;;;;;;5012660;28;20115;-71
2023/03/22 10:33:49;;;;;;;4.68;2.92;;;19.50;88.40;;;;;;5012644;28;20452;-70
2023/03/22 10:36:17;;;;;;;5.65;3.35;;;19.50;90.00;;;;;;5012648;28;20029;-71
2023/03/22 10:38:48;;;;;;;6.90;2.63;;;19.50;89.30;;;;;;5013561;28;20391;-69
2023/03/22 10:41:20;;;;;;;6.85;2.97;;;19.50;89.10;;;;;;5012418;28;20034;-70
2023/03/22 10:43:56;;;;;;;5.05;2.58;;;19.10;88.70;;;;;;5012160;28;20088;-70
2023/03/22 10:46:24;;;;;;;9.10;3.53;;;19.30;88.00;;;;;;5012743;28;20037;-70
2023/03/22 10:48:56;;;;;;;5.68;2.42;;;19.50;88.50;;;;;;5012426;28;20133;-69
2023/03/22 10:51:46;;;;;;;5.43;2.53;;;19.40;88.40;;;;;;5012682;28;20037;-71
2023/03/22 10:54:15;;;;;;;9.55;2.50;;;19.20;89.50;;;;;;5012954;28;20036;-70
2023/03/22 10:56:41;;;;;;;6.20;2.60;;;19.00;88.00;;;;;;5012784;28;20052;-70
2023/03/22 10:59:10;;;;;;;5.30;2.40;;;18.70;87.10;;;;;;5012059;28;20529;-70
2023/03/22 11:01:43;;;;;;;8.38;1.85;;;18.50;87.50;;;;;;5012156;28;20069;-70
2023/03/22 11:04:15;;;;;;;3.45;1.48;;;17.90;87.40;;;;;;5012291;28;20056;-71
2023/03/22 11:06:51;;;;;;;5.47;2.22;;;17.70;87.30;;;;;;5018067;28;20124;-70
2023/03/22 11:09:19;;;;;;;7.10;2.63;;;18.00;88.00;;;;;;5010985;28;20464;-72
2023/03/22 11:11:55;;;;;;;;;;;18.10;89.30;;;;;;5012160;28;20108;-71
2023/03/22 11:14:34;;;;;;;7.90;2.50;;;18.00;89.70;;;;;;5012343;28;19992;-70
2023/03/22 11:17:06;;;;;;;5.82;2.38;;;18.00;89.90;;;;;;5011883;28;20049;-71
2023/03/22 11:19:34;;;;;;;6.50;2.47;;;18.00;89.50;;;;;;5011806;28;20030;-70
2023/03/22 11:22:01;;;;;;;6.32;2.50;;;18.10;89.50;;;;;;5010905;28;20417;-70
2023/03/22 11:24:30;;;;;;;9.00;2.67;;;18.40;89.20;;;;;;5011747;28;20364;-69
2023/03/22 11:27:23;;;;;;;6.07;2.67;;;18.70;88.50;;;;;;5010868;28;20053;-70
2023/03/22 11:29:51;;;;;;;7.38;2.95;;;18.60;88.10;;;;;;5011636;28;20044;-71
2023/03/22 11:32:26;;;;;;;8.32;2.45;;;18.30;88.40;;;;;;5010544;28;20121;-71
2023/03/22 11:35:27;;;;;;;5.03;1.85;;;18.20;88.50;;;;;;5011839;28;20471;-70
2023/03/22 11:37:54;;;;;;;7.15;4.20;;;17.80;87.90;;;;;;5010340;28;20026;-70
2023/03/22 11:40:23;;;;;;;5.25;2.85;;;17.80;88.40;;;;;;5011484;28;20445;-71
2023/03/22 11:42:54;;;;;;;3.95;1.60;;;17.80;86.60;;;;;;5011838;28;20048;-70
2023/03/22 11:45:31;;;;;;;6.20;1.60;;;17.70;86.30;;;;;;5011133;28;20525;-71
2023/03/22 11:48:04;;;;;;;6.60;2.08;;;17.90;86.40;;;;;;5011798;28;20030;-71
2023/03/22 11:50:34;;;;;;;7.18;1.60;;;17.90;85.20;;;;;;5010886;28;20026;-70
2023/03/22 11:53:07;;;;;;;5.40;1.90;;;17.90;85.50;;;;;;5011239;28;20030;-70
2023/03/22 11:55:35;;;;;;;3.65;1.38;;;17.60;85.50;;;;;;5011317;28;20026;-70
2023/03/22 11:58:05;;;;;;;3.53;1.13;;;17.70;86.40;;;;;;5010169;28;20117;-71
2023/03/22 12:00:36;;;;;;;5.97;1.50;;;17.50;85.90;;;;;;5011218;28;20310;-71
2023/03/22 12:03:12;;;;;;;4.13;1.35;;;17.60;86.00;;;;;;5012202;28;20033;-70
2023/03/22 12:05:41;;;;;;;4.70;1.58;;;17.60;86.20;;;;;;5009741;28;20033;-71
2023/03/22 12:08:33;;;;;;;4.57;2.13;;;17.70;86.10;;;;;;5011227;28;20425;-70
2023/03/22 12:11:10;;;;;;;7.03;1.80;;;18.00;86.80;;;;;;5010811;28;20034;-72
2023/03/22 12:13:47;;;;;;;5.65;1.63;;;17.90;85.10;;;;;;5009933;28;20108;-69
2023/03/22 12:16:16;;;;;;;4.88;1.50;;;17.80;85.10;;;;;;5010556;28;20042;-70
2023/03/22 12:19:13;;;;;;;6.65;1.90;;;17.90;86.00;;;;;;5010790;28;20396;-70
2023/03/22 12:21:40;;;;;;;7.18;2.20;;;17.80;85.70;;;;;;5010935;28;20466;-70
2023/03/22 12:24:25;;;;;;;5.82;1.70;;;17.80;86.00;;;;;;5011481;28;20356;-71
2023/03/22 12:26:58;;;;;;;5.90;1.65;;;17.90;85.50;;;;;;5009731;28;20038;-71
2023/03/22 12:29:26;;;;;;;6.85;1.92;;;17.90;85.20;;;;;;5010719;28;20041;-71
2023/03/22 12:32:11;;;;;;;11.93;2.10;;;18.10;86.00;;;;;;5009566;28;20169;-71
2023/03/22 12:34:43;;;;;;;4.47;1.42;;;17.90;85.10;;;;;;5010926;28;20423;-70
2023/03/22 12:37:19;;;;;;;6.22;2.40;;;17.90;86.10;;;;;;5009544;28;20091;-72
2023/03/22 12:39:54;;;;;;;6.47;1.88;;;17.70;85.60;;;;;;5009784;28;20060;-71
2023/03/22 12:42:35;;;;;;;7.65;2.13;;;17.70;85.90;;;;;;5010843;28;20049;-70
2023/03/22 12:45:11;;;;;;;9.18;1.80;;;17.80;85.60;;;;;;5011127;28;20101;-70
2023/03/22 12:47:44;;;;;;;7.22;1.67;;;17.60;86.00;;;;;;5011119;28;20052;-71
2023/03/22 12:50:30;;;;;;;5.38;1.80;;;17.50;86.40;;;;;;5011306;28;20702;-72
2023/03/22 12:52:57;;;;;;;4.55;2.63;;;17.40;86.30;;;;;;5010302;28;20120;-70